sensor_id;sensor_type;location;lat;lon;timestamp;P1;durP1;ratioP1;P2;durP2;ratioP2
75303;SDS011;64042;50.916;6.988;2023-02-01T00:00:22;4.25;;;3.38;;
75303;SDS011;64042;50.916;6.988;2023-02-01T00:02:48;3.35;;;2.80;;
75303;SDS011;64042;50.916;6.988;2023-02-01T00:05:13;3.78;;;3.38;;
75303;SDS011;64042;50.916;6.988;2023-02-01T00:07:38;4.38;;;3.40;;
75303;SDS011;64042;50.916;6.988;2023-02-01T00:10:04;5.47;;;3.77;;
75303;SDS011;64042;50.916;6.988;2023-02-01T00:12:31;4.07;;;3.28;;
75303;SDS011;64042;50.916;6.988;2023-02-01T00:14:56;3.58;;;2.88;;
75303;SDS011;64042;50.916;6.988;2023-02-01T00:17:22;4.10;;;2.67;;
75303;SDS011;64042;50.916;6.988;2023-02-01T00:19:47;5.13;;;2.85;;
75303;SDS011;64042;50.916;6.988;2023-02-01T00:22:12;3.43;;;2.83;;
75303;SDS011;64042;50.916;6.988;2023-02-01T00:24:38;3.27;;;2.97;;
75303;SDS011;64042;50.916;6.988;2023-02-01T00:27:03;4.38;;;2.90;;
75303;SDS011;64042;50.916;6.988;2023-02-01T00:29:28;3.75;;;3.20;;
75303;SDS011;64042;50.916;6.988;2023-02-01T00:31:53;4.30;;;3.53;;
75303;SDS011;64042;50.916;6.988;2023-02-01T00:34:19;4.75;;;3.05;;
75303;SDS011;64042;50.916;6.988;2023-02-01T00:36:45;4.30;;;3.05;;
75303;SDS011;64042;50.916;6.988;2023-02-01T00:39:10;3.15;;;2.85;;
75303;SDS011;64042;50.916;6.988;2023-02-01T00:41:36;4.88;;;3.40;;
75303;SDS011;64042;50.916;6.988;2023-02-01T00:44:02;3.30;;;3.00;;
75303;SDS011;64042;50.916;6.988;2023-02-01T00:46:27;3.80;;;3.30;;
75303;SDS011;64042;50.916;6.988;2023-02-01T00:48:53;3.15;;;2.85;;
75303;SDS011;64042;50.916;6.988;2023-02-01T00:51:20;4.47;;;3.22;;
75303;SDS011;64042;50.916;6.988;2023-02-01T00:53:47;4.13;;;3.33;;
75303;SDS011;64042;50.916;6.988;2023-02-01T00:56:13;3.50;;;2.38;;
75303;SDS011;64042;50.916;6.988;2023-02-01T00:58:38;3.97;;;3.03;;
75303;SDS011;64042;50.916;6.988;2023-02-01T01:01:09;3.75;;;3.22;;
75303;SDS011;64042;50.916;6.988;2023-02-01T01:03:37;4.78;;;3.38;;
75303;SDS011;64042;50.916;6.988;2023-02-01T01:06:07;3.72;;;2.70;;
75303;SDS011;64042;50.916;6.988;2023-02-01T01:08:35;3.70;;;3.08;;
75303;SDS011;64042;50.916;6.988;2023-02-01T01:13:56;4.90;;;3.45;;
75303;SDS011;64042;50.916;6.988;2023-02-01T01:16:23;5.35;;;3.00;;
75303;SDS011;64042;50.916;6.988;2023-02-01T01:18:49;3.97;;;3.42;;
75303;SDS011;64042;50.916;6.988;2023-02-01T01:21:15;5.22;;;3.75;;
75303;SDS011;64042;50.916;6.988;2023-02-01T01:23:42;4.03;;;2.97;;
75303;SDS011;64042;50.916;6.988;2023-02-01T01:26:09;5.10;;;3.38;;
75303;SDS011;64042;50.916;6.988;2023-02-01T01:28:36;3.10;;;2.80;;
75303;SDS011;64042;50.916;6.988;2023-02-01T01:31:02;2.78;;;2.38;;
75303;SDS011;64042;50.916;6.988;2023-02-01T01:33:27;3.33;;;3.03;;
75303;SDS011;64042;50.916;6.988;2023-02-01T01:35:53;3.60;;;3.30;;
75303;SDS011;64042;50.916;6.988;2023-02-01T01:38:18;3.15;;;2.65;;
75303;SDS011;64042;50.916;6.988;2023-02-01T01:40:46;4.27;;;3.37;;
75303;SDS011;64042;50.916;6.988;2023-02-01T01:43:13;4.50;;;3.28;;
75303;SDS011;64042;50.916;6.988;2023-02-01T01:45:40;4.13;;;2.78;;
75303;SDS011;64042;50.916;6.988;2023-02-01T01:48:06;3.42;;;3.13;;
75303;SDS011;64042;50.916;6.988;2023-02-01T01:50:56;4.45;;;3.17;;
75303;SDS011;64042;50.916;6.988;2023-02-01T01:53:24;3.33;;;2.88;;
75303;SDS011;64042;50.916;6.988;2023-02-01T01:55:52;3.40;;;3.00;;
75303;SDS011;64042;50.916;6.988;2023-02-01T01:58:19;4.15;;;3.83;;
75303;SDS011;64042;50.916;6.988;2023-02-01T02:00:47;5.28;;;2.95;;
75303;SDS011;64042;50.916;6.988;2023-02-01T02:05:49;3.95;;;2.53;;
75303;SDS011;64042;50.916;6.988;2023-02-01T02:08:15;3.70;;;3.20;;
75303;SDS011;64042;50.916;6.988;2023-02-01T02:10:42;3.50;;;2.65;;
75303;SDS011;64042;50.916;6.988;2023-02-01T02:13:35;3.28;;;2.83;;
75303;SDS011;64042;50.916;6.988;2023-02-01T02:16:12;3.25;;;2.75;;
75303;SDS011;64042;50.916;6.988;2023-02-01T02:21:42;3.35;;;3.05;;
75303;SDS011;64042;50.916;6.988;2023-02-01T02:27:09;3.25;;;2.58;;
75303;SDS011;64042;50.916;6.988;2023-02-01T02:38:18;2.95;;;2.47;;
75303;SDS011;64042;50.916;6.988;2023-02-01T02:46:38;3.92;;;2.85;;
75303;SDS011;64042;50.916;6.988;2023-02-01T02:49:29;2.72;;;2.50;;
75303;SDS011;64042;50.916;6.988;2023-02-01T02:52:02;4.05;;;2.17;;
75303;SDS011;64042;50.916;6.988;2023-02-01T02:54:50;4.05;;;2.78;;
75303;SDS011;64042;50.916;6.988;2023-02-01T02:57:30;4.20;;;2.67;;
75303;SDS011;64042;50.916;6.988;2023-02-01T03:00:17;3.55;;;3.03;;
75303;SDS011;64042;50.916;6.988;2023-02-01T03:03:03;3.40;;;2.28;;
75303;SDS011;64042;50.916;6.988;2023-02-01T03:05:47;3.35;;;3.05;;
75303;SDS011;64042;50.916;6.988;2023-02-01T03:08:33;3.13;;;2.75;;
75303;SDS011;64042;50.916;6.988;2023-02-01T03:11:02;2.45;;;2.20;;
75303;SDS011;64042;50.916;6.988;2023-02-01T03:16:36;2.88;;;2.38;;
75303;SDS011;64042;50.916;6.988;2023-02-01T03:19:08;2.78;;;2.30;;
75303;SDS011;64042;50.916;6.988;2023-02-01T03:24:24;2.70;;;2.45;;
75303;SDS011;64042;50.916;6.988;2023-02-01T03:26:58;3.97;;;3.03;;
75303;SDS011;64042;50.916;6.988;2023-02-01T03:29:29;3.15;;;2.92;;
75303;SDS011;64042;50.916;6.988;2023-02-01T03:32:00;2.58;;;2.15;;
75303;SDS011;64042;50.916;6.988;2023-02-01T03:34:25;3.08;;;2.78;;
75303;SDS011;64042;50.916;6.988;2023-02-01T03:36:52;2.38;;;2.10;;
75303;SDS011;64042;50.916;6.988;2023-02-01T03:40:08;3.50;;;3.20;;
75303;SDS011;64042;50.916;6.988;2023-02-01T03:44:49;3.20;;;2.63;;
75303;SDS011;64042;50.916;6.988;2023-02-01T03:47:20;3.58;;;2.58;;
75303;SDS011;64042;50.916;6.988;2023-02-01T03:49:49;3.45;;;2.40;;
75303;SDS011;64042;50.916;6.988;2023-02-01T03:52:20;2.63;;;2.05;;
75303;SDS011;64042;50.916;6.988;2023-02-01T03:54:48;2.80;;;2.20;;
75303;SDS011;64042;50.916;6.988;2023-02-01T03:57:16;4.22;;;2.50;;
75303;SDS011;64042;50.916;6.988;2023-02-01T03:59:45;3.42;;;3.13;;
75303;SDS011;64042;50.916;6.988;2023-02-01T04:02:10;3.58;;;2.75;;
75303;SDS011;64042;50.916;6.988;2023-02-01T04:04:36;3.10;;;2.70;;
75303;SDS011;64042;50.916;6.988;2023-02-01T04:07:01;2.70;;;2.17;;
75303;SDS011;64042;50.916;6.988;2023-02-01T04:09:27;2.65;;;1.90;;
75303;SDS011;64042;50.916;6.988;2023-02-01T04:11:52;1.90;;;1.77;;
75303;SDS011;64042;50.916;6.988;2023-02-01T04:14:17;2.93;;;2.10;;
75303;SDS011;64042;50.916;6.988;2023-02-01T04:16:43;2.58;;;2.35;;
75303;SDS011;64042;50.916;6.988;2023-02-01T04:19:08;4.50;;;2.43;;
75303;SDS011;64042;50.916;6.988;2023-02-01T04:21:33;3.00;;;2.42;;
75303;SDS011;64042;50.916;6.988;2023-02-01T04:23:59;3.07;;;2.17;;
75303;SDS011;64042;50.916;6.988;2023-02-01T04:26:24;2.83;;;2.53;;
75303;SDS011;64042;50.916;6.988;2023-02-01T04:28:49;3.75;;;3.13;;
75303;SDS011;64042;50.916;6.988;2023-02-01T04:31:16;3.58;;;2.78;;
75303;SDS011;64042;50.916;6.988;2023-02-01T04:33:41;2.60;;;2.33;;
75303;SDS011;64042;50.916;6.988;2023-02-01T04:36:07;2.50;;;1.73;;
75303;SDS011;64042;50.916;6.988;2023-02-01T04:38:32;2.45;;;2.10;;
75303;SDS011;64042;50.916;6.988;2023-02-01T04:40:58;3.90;;;2.92;;
75303;SDS011;64042;50.916;6.988;2023-02-01T04:43:24;2.42;;;2.20;;
75303;SDS011;64042;50.916;6.988;2023-02-01T04:45:49;2.55;;;2.35;;
75303;SDS011;64042;50.916;6.988;2023-02-01T04:48:15;2.70;;;2.28;;
75303;SDS011;64042;50.916;6.988;2023-02-01T04:50:42;2.97;;;2.50;;
75303;SDS011;64042;50.916;6.988;2023-02-01T04:53:10;2.83;;;2.45;;
75303;SDS011;64042;50.916;6.988;2023-02-01T04:55:35;2.60;;;2.30;;
75303;SDS011;64042;50.916;6.988;2023-02-01T04:58:00;2.60;;;2.20;;
75303;SDS011;64042;50.916;6.988;2023-02-01T05:00:25;3.23;;;2.60;;
75303;SDS011;64042;50.916;6.988;2023-02-01T05:02:51;2.77;;;2.23;;
75303;SDS011;64042;50.916;6.988;2023-02-01T05:05:16;2.30;;;2.10;;
75303;SDS011;64042;50.916;6.988;2023-02-01T05:07:41;2.60;;;2.40;;
75303;SDS011;64042;50.916;6.988;2023-02-01T05:10:07;2.73;;;2.27;;
75303;SDS011;64042;50.916;6.988;2023-02-01T05:12:33;2.97;;;2.25;;
75303;SDS011;64042;50.916;6.988;2023-02-01T05:15:17;3.08;;;2.65;;
75303;SDS011;64042;50.916;6.988;2023-02-01T05:17:42;2.33;;;2.10;;
75303;SDS011;64042;50.916;6.988;2023-02-01T05:20:08;2.67;;;2.45;;
75303;SDS011;64042;50.916;6.988;2023-02-01T05:22:33;2.40;;;1.98;;
75303;SDS011;64042;50.916;6.988;2023-02-01T05:24:59;2.57;;;1.60;;
75303;SDS011;64042;50.916;6.988;2023-02-01T05:27:24;2.57;;;2.33;;
75303;SDS011;64042;50.916;6.988;2023-02-01T05:29:49;2.30;;;1.95;;
75303;SDS011;64042;50.916;6.988;2023-02-01T05:32:15;2.45;;;1.88;;
75303;SDS011;64042;50.916;6.988;2023-02-01T05:34:40;2.80;;;2.60;;
75303;SDS011;64042;50.916;6.988;2023-02-01T05:37:05;3.17;;;2.53;;
75303;SDS011;64042;50.916;6.988;2023-02-01T05:39:31;2.20;;;1.70;;
75303;SDS011;64042;50.916;6.988;2023-02-01T05:41:56;3.20;;;2.67;;
75303;SDS011;64042;50.916;6.988;2023-02-01T05:44:21;2.13;;;1.75;;
75303;SDS011;64042;50.916;6.988;2023-02-01T05:46:46;2.23;;;2.03;;
75303;SDS011;64042;50.916;6.988;2023-02-01T05:49:12;2.85;;;2.45;;
75303;SDS011;64042;50.916;6.988;2023-02-01T05:51:37;2.50;;;2.03;;
75303;SDS011;64042;50.916;6.988;2023-02-01T05:54:02;2.03;;;1.83;;
75303;SDS011;64042;50.916;6.988;2023-02-01T05:56:28;2.30;;;2.10;;
75303;SDS011;64042;50.916;6.988;2023-02-01T05:58:53;2.90;;;1.73;;
75303;SDS011;64042;50.916;6.988;2023-02-01T06:01:18;1.98;;;1.77;;
75303;SDS011;64042;50.916;6.988;2023-02-01T06:03:44;2.22;;;1.60;;
75303;SDS011;64042;50.916;6.988;2023-02-01T06:06:09;3.40;;;2.92;;
75303;SDS011;64042;50.916;6.988;2023-02-01T06:08:34;3.75;;;2.33;;
75303;SDS011;64042;50.916;6.988;2023-02-01T06:11:00;3.17;;;1.67;;
75303;SDS011;64042;50.916;6.988;2023-02-01T06:13:29;3.15;;;1.98;;
75303;SDS011;64042;50.916;6.988;2023-02-01T06:15:55;2.50;;;1.77;;
75303;SDS011;64042;50.916;6.988;2023-02-01T06:18:22;2.50;;;2.30;;
75303;SDS011;64042;50.916;6.988;2023-02-01T06:20:57;4.35;;;2.45;;
75303;SDS011;64042;50.916;6.988;2023-02-01T06:23:25;2.45;;;1.77;;
75303;SDS011;64042;50.916;6.988;2023-02-01T06:25:51;2.55;;;1.65;;
75303;SDS011;64042;50.916;6.988;2023-02-01T06:28:16;3.22;;;1.67;;
75303;SDS011;64042;50.916;6.988;2023-02-01T06:30:42;2.90;;;1.83;;
75303;SDS011;64042;50.916;6.988;2023-02-01T06:33:10;2.47;;;2.15;;
75303;SDS011;64042;50.916;6.988;2023-02-01T06:35:37;2.85;;;1.63;;
75303;SDS011;64042;50.916;6.988;2023-02-01T06:38:02;3.30;;;2.10;;
75303;SDS011;64042;50.916;6.988;2023-02-01T06:40:27;2.33;;;1.87;;
75303;SDS011;64042;50.916;6.988;2023-02-01T06:42:52;3.00;;;2.47;;
75303;SDS011;64042;50.916;6.988;2023-02-01T06:45:18;1.50;;;1.17;;
75303;SDS011;64042;50.916;6.988;2023-02-01T06:47:43;2.13;;;1.93;;
75303;SDS011;64042;50.916;6.988;2023-02-01T06:50:08;2.40;;;2.13;;
75303;SDS011;64042;50.916;6.988;2023-02-01T06:52:35;2.90;;;2.45;;
75303;SDS011;64042;50.916;6.988;2023-02-01T06:55:00;2.53;;;1.83;;
75303;SDS011;64042;50.916;6.988;2023-02-01T06:57:25;2.93;;;2.70;;
75303;SDS011;64042;50.916;6.988;2023-02-01T06:59:55;3.08;;;1.83;;
75303;SDS011;64042;50.916;6.988;2023-02-01T07:02:20;3.03;;;2.53;;
75303;SDS011;64042;50.916;6.988;2023-02-01T07:04:46;3.97;;;3.23;;
75303;SDS011;64042;50.916;6.988;2023-02-01T07:07:11;2.58;;;2.28;;
75303;SDS011;64042;50.916;6.988;2023-02-01T07:09:37;2.50;;;2.30;;
75303;SDS011;64042;50.916;6.988;2023-02-01T07:12:03;2.53;;;2.05;;
75303;SDS011;64042;50.916;6.988;2023-02-01T07:14:28;2.30;;;2.20;;
75303;SDS011;64042;50.916;6.988;2023-02-01T07:16:53;3.13;;;1.70;;
75303;SDS011;64042;50.916;6.988;2023-02-01T07:19:19;2.73;;;2.30;;
75303;SDS011;64042;50.916;6.988;2023-02-01T07:21:44;2.83;;;2.63;;
75303;SDS011;64042;50.916;6.988;2023-02-01T07:24:09;2.63;;;1.63;;
75303;SDS011;64042;50.916;6.988;2023-02-01T07:26:35;3.23;;;1.87;;
75303;SDS011;64042;50.916;6.988;2023-02-01T07:29:00;1.98;;;1.88;;
75303;SDS011;64042;50.916;6.988;2023-02-01T07:31:25;2.97;;;2.08;;
75303;SDS011;64042;50.916;6.988;2023-02-01T07:36:20;3.40;;;3.20;;
75303;SDS011;64042;50.916;6.988;2023-02-01T07:38:45;2.60;;;1.83;;
75303;SDS011;64042;50.916;6.988;2023-02-01T07:41:14;2.38;;;2.08;;
75303;SDS011;64042;50.916;6.988;2023-02-01T07:43:39;2.60;;;2.40;;
75303;SDS011;64042;50.916;6.988;2023-02-01T07:46:05;2.73;;;1.83;;
75303;SDS011;64042;50.916;6.988;2023-02-01T07:48:31;2.53;;;2.22;;
75303;SDS011;64042;50.916;6.988;2023-02-01T07:50:57;3.70;;;2.22;;
75303;SDS011;64042;50.916;6.988;2023-02-01T07:53:24;3.08;;;2.65;;
75303;SDS011;64042;50.916;6.988;2023-02-01T07:55:50;2.50;;;2.08;;
75303;SDS011;64042;50.916;6.988;2023-02-01T07:58:15;2.20;;;1.53;;
75303;SDS011;64042;50.916;6.988;2023-02-01T08:00:40;2.23;;;1.70;;
75303;SDS011;64042;50.916;6.988;2023-02-01T08:03:24;3.05;;;2.00;;
75303;SDS011;64042;50.916;6.988;2023-02-01T08:05:53;3.00;;;1.60;;
75303;SDS011;64042;50.916;6.988;2023-02-01T08:08:19;2.13;;;1.58;;
75303;SDS011;64042;50.916;6.988;2023-02-01T08:10:45;2.67;;;2.47;;
75303;SDS011;64042;50.916;6.988;2023-02-01T08:13:10;2.03;;;1.45;;
75303;SDS011;64042;50.916;6.988;2023-02-01T08:15:35;3.03;;;1.67;;
75303;SDS011;64042;50.916;6.988;2023-02-01T08:18:00;2.53;;;1.90;;
75303;SDS011;64042;50.916;6.988;2023-02-01T08:20:27;3.22;;;2.35;;
75303;SDS011;64042;50.916;6.988;2023-02-01T08:22:53;2.78;;;1.88;;
75303;SDS011;64042;50.916;6.988;2023-02-01T08:25:18;2.83;;;2.25;;
75303;SDS011;64042;50.916;6.988;2023-02-01T08:27:44;2.80;;;2.00;;
75303;SDS011;64042;50.916;6.988;2023-02-01T08:30:09;2.13;;;1.45;;
75303;SDS011;64042;50.916;6.988;2023-02-01T08:32:35;2.85;;;2.15;;
75303;SDS011;64042;50.916;6.988;2023-02-01T08:35:00;3.63;;;1.83;;
75303;SDS011;64042;50.916;6.988;2023-02-01T08:37:26;2.72;;;1.98;;
75303;SDS011;64042;50.916;6.988;2023-02-01T08:39:51;2.60;;;1.67;;
75303;SDS011;64042;50.916;6.988;2023-02-01T08:42:16;2.10;;;1.87;;
75303;SDS011;64042;50.916;6.988;2023-02-01T08:45:01;2.80;;;2.05;;
75303;SDS011;64042;50.916;6.988;2023-02-01T08:47:27;2.00;;;1.75;;
75303;SDS011;64042;50.916;6.988;2023-02-01T08:49:53;3.92;;;1.85;;
75303;SDS011;64042;50.916;6.988;2023-02-01T08:52:18;2.95;;;2.08;;
75303;SDS011;64042;50.916;6.988;2023-02-01T08:54:44;2.17;;;1.90;;
75303;SDS011;64042;50.916;6.988;2023-02-01T08:57:09;2.10;;;1.33;;
75303;SDS011;64042;50.916;6.988;2023-02-01T08:59:35;2.58;;;1.90;;
75303;SDS011;64042;50.916;6.988;2023-02-01T09:02:00;1.98;;;1.70;;
75303;SDS011;64042;50.916;6.988;2023-02-01T09:04:25;3.35;;;2.20;;
75303;SDS011;64042;50.916;6.988;2023-02-01T09:06:51;3.37;;;1.50;;
75303;SDS011;64042;50.916;6.988;2023-02-01T09:09:16;2.92;;;1.52;;
75303;SDS011;64042;50.916;6.988;2023-02-01T09:11:41;2.33;;;1.80;;
75303;SDS011;64042;50.916;6.988;2023-02-01T09:14:07;3.27;;;1.73;;
75303;SDS011;64042;50.916;6.988;2023-02-01T09:16:32;2.13;;;1.93;;
75303;SDS011;64042;50.916;6.988;2023-02-01T09:18:57;2.13;;;1.33;;
75303;SDS011;64042;50.916;6.988;2023-02-01T09:21:23;3.45;;;1.23;;
75303;SDS011;64042;50.916;6.988;2023-02-01T09:23:50;3.75;;;2.88;;
75303;SDS011;64042;50.916;6.988;2023-02-01T09:26:16;2.55;;;1.52;;
75303;SDS011;64042;50.916;6.988;2023-02-01T09:28:41;2.77;;;1.73;;
75303;SDS011;64042;50.916;6.988;2023-02-01T09:31:06;1.90;;;1.33;;
75303;SDS011;64042;50.916;6.988;2023-02-01T09:33:31;2.47;;;2.20;;
75303;SDS011;64042;50.916;6.988;2023-02-01T09:35:58;3.07;;;1.13;;
75303;SDS011;64042;50.916;6.988;2023-02-01T09:38:24;2.05;;;1.85;;
75303;SDS011;64042;50.916;6.988;2023-02-01T09:40:50;1.85;;;1.60;;
75303;SDS011;64042;50.916;6.988;2023-02-01T09:46:16;3.00;;;1.45;;
75303;SDS011;64042;50.916;6.988;2023-02-01T09:48:45;2.75;;;1.85;;
75303;SDS011;64042;50.916;6.988;2023-02-01T09:51:15;3.22;;;2.42;;
75303;SDS011;64042;50.916;6.988;2023-02-01T09:53:43;2.13;;;1.55;;
75303;SDS011;64042;50.916;6.988;2023-02-01T09:56:12;2.45;;;2.25;;
75303;SDS011;64042;50.916;6.988;2023-02-01T10:01:19;3.10;;;2.47;;
75303;SDS011;64042;50.916;6.988;2023-02-01T10:03:49;1.83;;;1.35;;
75303;SDS011;64042;50.916;6.988;2023-02-01T10:13:09;3.50;;;1.90;;
75303;SDS011;64042;50.916;6.988;2023-02-01T10:23:37;1.75;;;1.35;;
75303;SDS011;64042;50.916;6.988;2023-02-01T10:26:20;2.47;;;1.90;;
75303;SDS011;64042;50.916;6.988;2023-02-01T10:28:50;1.63;;;1.17;;
75303;SDS011;64042;50.916;6.988;2023-02-01T10:31:17;2.05;;;1.85;;
75303;SDS011;64042;50.916;6.988;2023-02-01T10:36:32;2.47;;;1.77;;
75303;SDS011;64042;50.916;6.988;2023-02-01T10:39:03;2.50;;;1.73;;
75303;SDS011;64042;50.916;6.988;2023-02-01T10:41:33;2.10;;;1.35;;
75303;SDS011;64042;50.916;6.988;2023-02-01T10:43:59;1.65;;;1.33;;
75303;SDS011;64042;50.916;6.988;2023-02-01T10:46:26;2.30;;;1.80;;
75303;SDS011;64042;50.916;6.988;2023-02-01T10:48:55;2.25;;;1.55;;
75303;SDS011;64042;50.916;6.988;2023-02-01T10:51:24;1.80;;;1.23;;
75303;SDS011;64042;50.916;6.988;2023-02-01T10:53:53;3.42;;;1.77;;
75303;SDS011;64042;50.916;6.988;2023-02-01T10:56:31;1.85;;;1.05;;
75303;SDS011;64042;50.916;6.988;2023-02-01T10:59:06;1.90;;;1.77;;
75303;SDS011;64042;50.916;6.988;2023-02-01T11:01:40;2.33;;;2.05;;
75303;SDS011;64042;50.916;6.988;2023-02-01T11:04:09;2.10;;;1.40;;
75303;SDS011;64042;50.916;6.988;2023-02-01T11:06:40;2.58;;;2.20;;
75303;SDS011;64042;50.916;6.988;2023-02-01T11:11:32;2.10;;;1.03;;
75303;SDS011;64042;50.916;6.988;2023-02-01T11:14:14;1.83;;;1.38;;
75303;SDS011;64042;50.916;6.988;2023-02-01T11:16:46;1.83;;;1.73;;
75303;SDS011;64042;50.916;6.988;2023-02-01T11:19:14;2.13;;;1.70;;
75303;SDS011;64042;50.916;6.988;2023-02-01T11:21:41;2.95;;;1.73;;
75303;SDS011;64042;50.916;6.988;2023-02-01T11:24:11;3.40;;;1.55;;
75303;SDS011;64042;50.916;6.988;2023-02-01T11:26:48;3.33;;;2.05;;
75303;SDS011;64042;50.916;6.988;2023-02-01T11:29:15;2.10;;;1.77;;
75303;SDS011;64042;50.916;6.988;2023-02-01T11:31:43;2.40;;;1.38;;
75303;SDS011;64042;50.916;6.988;2023-02-01T11:34:13;3.45;;;1.70;;
75303;SDS011;64042;50.916;6.988;2023-02-01T11:36:41;2.63;;;1.60;;
75303;SDS011;64042;50.916;6.988;2023-02-01T11:41:41;3.25;;;1.67;;
75303;SDS011;64042;50.916;6.988;2023-02-01T11:44:22;1.75;;;1.58;;
75303;SDS011;64042;50.916;6.988;2023-02-01T11:46:51;5.15;;;1.77;;
75303;SDS011;64042;50.916;6.988;2023-02-01T11:49:23;3.80;;;1.40;;
75303;SDS011;64042;50.916;6.988;2023-02-01T11:51:54;3.08;;;1.73;;
75303;SDS011;64042;50.916;6.988;2023-02-01T11:54:34;2.45;;;1.60;;
75303;SDS011;64042;50.916;6.988;2023-02-01T12:10:52;2.22;;;1.45;;
75303;SDS011;64042;50.916;6.988;2023-02-01T12:13:34;4.90;;;1.73;;
75303;SDS011;64042;50.916;6.988;2023-02-01T12:16:12;1.48;;;1.25;;
75303;SDS011;64042;50.916;6.988;2023-02-01T12:18:49;4.88;;;2.40;;
75303;SDS011;64042;50.916;6.988;2023-02-01T12:24:38;3.95;;;1.55;;
75303;SDS011;64042;50.916;6.988;2023-02-01T12:35:58;1.95;;;1.58;;
75303;SDS011;64042;50.916;6.988;2023-02-01T12:44:01;1.92;;;1.83;;
75303;SDS011;64042;50.916;6.988;2023-02-01T12:46:49;3.33;;;1.80;;
75303;SDS011;64042;50.916;6.988;2023-02-01T12:49:18;1.35;;;1.08;;
75303;SDS011;64042;50.916;6.988;2023-02-01T12:51:50;3.17;;;1.83;;
75303;SDS011;64042;50.916;6.988;2023-02-01T12:54:19;3.13;;;1.42;;
75303;SDS011;64042;50.916;6.988;2023-02-01T12:57:06;2.10;;;1.60;;
75303;SDS011;64042;50.916;6.988;2023-02-01T12:59:38;2.33;;;1.52;;
75303;SDS011;64042;50.916;6.988;2023-02-01T13:05:01;2.30;;;2.05;;
75303;SDS011;64042;50.916;6.988;2023-02-01T13:07:38;2.08;;;1.33;;
75303;SDS011;64042;50.916;6.988;2023-02-01T13:12:57;1.70;;;1.10;;
75303;SDS011;64042;50.916;6.988;2023-02-01T13:15:37;3.20;;;1.77;;
75303;SDS011;64042;50.916;6.988;2023-02-01T13:18:05;3.10;;;1.38;;
75303;SDS011;64042;50.916;6.988;2023-02-01T13:20:42;2.38;;;1.42;;
75303;SDS011;64042;50.916;6.988;2023-02-01T13:23:26;1.83;;;1.52;;
75303;SDS011;64042;50.916;6.988;2023-02-01T13:25:54;1.73;;;1.40;;
75303;SDS011;64042;50.916;6.988;2023-02-01T13:28:26;1.40;;;1.10;;
75303;SDS011;64042;50.916;6.988;2023-02-01T13:33:40;2.80;;;1.85;;
75303;SDS011;64042;50.916;6.988;2023-02-01T13:39:30;2.13;;;1.65;;
75303;SDS011;64042;50.916;6.988;2023-02-01T13:42:05;2.17;;;1.75;;
75303;SDS011;64042;50.916;6.988;2023-02-01T13:44:38;3.08;;;2.40;;
75303;SDS011;64042;50.916;6.988;2023-02-01T13:49:52;2.03;;;1.67;;
75303;SDS011;64042;50.916;6.988;2023-02-01T13:52:36;2.33;;;1.90;;
75303;SDS011;64042;50.916;6.988;2023-02-01T13:55:25;2.63;;;2.15;;
75303;SDS011;64042;50.916;6.988;2023-02-01T13:58:03;2.58;;;1.35;;
75303;SDS011;64042;50.916;6.988;2023-02-01T14:00:39;1.85;;;1.63;;
75303;SDS011;64042;50.916;6.988;2023-02-01T14:13:28;2.00;;;1.38;;
75303;SDS011;64042;50.916;6.988;2023-02-01T14:21:13;1.90;;;1.13;;
75303;SDS011;64042;50.916;6.988;2023-02-01T14:23:46;3.15;;;1.23;;
75303;SDS011;64042;50.916;6.988;2023-02-01T14:26:17;1.67;;;1.27;;
75303;SDS011;64042;50.916;6.988;2023-02-01T14:31:52;1.83;;;1.20;;
75303;SDS011;64042;50.916;6.988;2023-02-01T14:36:58;1.42;;;1.23;;
75303;SDS011;64042;50.916;6.988;2023-02-01T14:39:32;1.70;;;1.48;;
75303;SDS011;64042;50.916;6.988;2023-02-01T14:42:02;1.90;;;1.15;;
75303;SDS011;64042;50.916;6.988;2023-02-01T14:44:30;1.90;;;1.13;;
75303;SDS011;64042;50.916;6.988;2023-02-01T14:52:43;2.45;;;1.92;;
75303;SDS011;64042;50.916;6.988;2023-02-01T14:55:18;1.95;;;1.60;;
75303;SDS011;64042;50.916;6.988;2023-02-01T14:57:50;1.73;;;1.27;;
75303;SDS011;64042;50.916;6.988;2023-02-01T15:02:49;3.75;;;2.08;;
75303;SDS011;64042;50.916;6.988;2023-02-01T15:05:31;4.68;;;1.40;;
75303;SDS011;64042;50.916;6.988;2023-02-01T15:08:33;7.88;;;1.80;;
75303;SDS011;64042;50.916;6.988;2023-02-01T15:10:50;5.95;;;1.83;;
75303;SDS011;64042;50.916;6.988;2023-02-01T15:13:21;3.28;;;1.73;;
75303;SDS011;64042;50.916;6.988;2023-02-01T15:18:39;4.03;;;1.38;;
75303;SDS011;64042;50.916;6.988;2023-02-01T15:21:05;2.90;;;1.13;;
75303;SDS011;64042;50.916;6.988;2023-02-01T15:23:32;9.38;;;1.63;;
75303;SDS011;64042;50.916;6.988;2023-02-01T15:25:58;3.40;;;1.73;;
75303;SDS011;64042;50.916;6.988;2023-02-01T15:28:24;3.45;;;1.58;;
75303;SDS011;64042;50.916;6.988;2023-02-01T15:30:57;3.05;;;1.52;;
75303;SDS011;64042;50.916;6.988;2023-02-01T15:33:25;3.35;;;1.55;;
75303;SDS011;64042;50.916;6.988;2023-02-01T15:35:55;2.90;;;1.35;;
75303;SDS011;64042;50.916;6.988;2023-02-01T15:41:08;2.65;;;1.08;;
75303;SDS011;64042;50.916;6.988;2023-02-01T15:46:18;3.33;;;1.08;;
75303;SDS011;64042;50.916;6.988;2023-02-01T15:48:51;2.55;;;0.93;;
75303;SDS011;64042;50.916;6.988;2023-02-01T15:51:19;2.90;;;1.42;;
75303;SDS011;64042;50.916;6.988;2023-02-01T15:53:49;1.83;;;1.15;;
75303;SDS011;64042;50.916;6.988;2023-02-01T15:56:21;2.15;;;1.60;;
75303;SDS011;64042;50.916;6.988;2023-02-01T15:58:49;2.03;;;1.45;;
75303;SDS011;64042;50.916;6.988;2023-02-01T16:01:17;2.67;;;1.73;;
75303;SDS011;64042;50.916;6.988;2023-02-01T16:03:44;3.03;;;1.98;;
75303;SDS011;64042;50.916;6.988;2023-02-01T16:06:27;1.98;;;1.02;;
75303;SDS011;64042;50.916;6.988;2023-02-01T16:09:15;2.83;;;1.67;;
75303;SDS011;64042;50.916;6.988;2023-02-01T16:11:48;3.85;;;1.50;;
75303;SDS011;64042;50.916;6.988;2023-02-01T16:14:17;2.33;;;1.50;;
75303;SDS011;64042;50.916;6.988;2023-02-01T16:16:42;2.90;;;2.35;;
75303;SDS011;64042;50.916;6.988;2023-02-01T16:19:07;3.77;;;1.27;;
75303;SDS011;64042;50.916;6.988;2023-02-01T16:21:33;3.80;;;1.33;;
75303;SDS011;64042;50.916;6.988;2023-02-01T16:23:58;1.93;;;1.00;;
75303;SDS011;64042;50.916;6.988;2023-02-01T16:26:28;2.95;;;1.15;;
75303;SDS011;64042;50.916;6.988;2023-02-01T16:28:54;2.15;;;1.08;;
75303;SDS011;64042;50.916;6.988;2023-02-01T16:31:20;2.97;;;1.55;;
75303;SDS011;64042;50.916;6.988;2023-02-01T16:33:51;2.47;;;1.73;;
75303;SDS011;64042;50.916;6.988;2023-02-01T16:36:16;2.35;;;1.38;;
75303;SDS011;64042;50.916;6.988;2023-02-01T16:38:42;2.78;;;1.33;;
75303;SDS011;64042;50.916;6.988;2023-02-01T16:41:15;1.27;;;1.05;;
75303;SDS011;64042;50.916;6.988;2023-02-01T16:43:41;2.50;;;1.33;;
75303;SDS011;64042;50.916;6.988;2023-02-01T16:46:11;1.80;;;1.25;;
75303;SDS011;64042;50.916;6.988;2023-02-01T16:48:39;3.67;;;1.38;;
75303;SDS011;64042;50.916;6.988;2023-02-01T16:51:11;1.80;;;0.98;;
75303;SDS011;64042;50.916;6.988;2023-02-01T16:53:37;3.13;;;1.33;;
75303;SDS011;64042;50.916;6.988;2023-02-01T16:56:13;3.05;;;1.15;;
75303;SDS011;64042;50.916;6.988;2023-02-01T16:58:40;3.58;;;1.15;;
75303;SDS011;64042;50.916;6.988;2023-02-01T17:01:07;1.65;;;1.10;;
75303;SDS011;64042;50.916;6.988;2023-02-01T17:03:33;2.30;;;1.27;;
75303;SDS011;64042;50.916;6.988;2023-02-01T17:05:58;2.10;;;1.33;;
75303;SDS011;64042;50.916;6.988;2023-02-01T17:08:31;3.22;;;0.95;;
75303;SDS011;64042;50.916;6.988;2023-02-01T17:10:57;2.45;;;1.35;;
75303;SDS011;64042;50.916;6.988;2023-02-01T17:13:23;2.42;;;1.27;;
75303;SDS011;64042;50.916;6.988;2023-02-01T17:15:53;2.70;;;2.17;;
75303;SDS011;64042;50.916;6.988;2023-02-01T17:18:21;2.83;;;1.75;;
75303;SDS011;64042;50.916;6.988;2023-02-01T17:20:47;2.47;;;1.25;;
75303;SDS011;64042;50.916;6.988;2023-02-01T17:23:13;1.42;;;1.15;;
75303;SDS011;64042;50.916;6.988;2023-02-01T17:25:41;1.83;;;1.15;;